Youngsville, New Mexico
Current Conditions -  °F | °C
As of 9:15 PM on Tuesday 27 Jan 2015 (Local Time) from KLAM Reporting Station
Clear Clear  
Wind Chill: 45°   Ceiling: Unl
Heat Index: 47°   Visibility: 10mi
Dew Point: 29°   Wind: 5mph
Humidity: 49%   Direction: 20°NNE
Pressure: 30.3"   Gusts: NA
Location:  36.19°N, 106.56°W
Report Text: KLAM 280415Z AUTO 02004KT 10SM CLR 08/M02 A3030 RMK AO2 T00841017
Loading
Personal Weather Stations






























Interactive Weather Map New forecast layout! Learn more

10-Day Weather Forecast

Advertisements
Track Severe Weather on mobile